createdAt,value
2022-08-19T00:00:18.794Z,21.40
2022-08-19T00:02:50.270Z,21.50
2022-08-19T00:05:21.306Z,21.50
2022-08-19T00:07:50.706Z,21.50
2022-08-19T00:10:20.719Z,21.50
2022-08-19T00:12:55.750Z,21.50
2022-08-19T00:15:25.287Z,21.50
2022-08-19T00:17:53.574Z,21.50
2022-08-19T00:20:24.180Z,21.50
2022-08-19T00:22:53.987Z,21.50
2022-08-19T00:25:30.227Z,21.50
2022-08-19T00:28:00.665Z,21.50
2022-08-19T00:30:29.195Z,21.40
2022-08-19T00:32:58.133Z,21.40
2022-08-19T00:35:28.527Z,21.40
2022-08-19T00:37:57.432Z,21.40
2022-08-19T00:40:32.882Z,21.30
2022-08-19T00:43:01.594Z,21.40
2022-08-19T00:45:36.610Z,21.30
2022-08-19T00:48:05.886Z,21.30
2022-08-19T00:50:52.037Z,21.30
2022-08-19T00:53:31.704Z,21.30
2022-08-19T00:56:02.391Z,21.20
2022-08-19T00:58:34.350Z,21.20
2022-08-19T01:01:05.462Z,21.10
2022-08-19T01:03:40.284Z,21.10
2022-08-19T01:06:23.511Z,21.10
2022-08-19T01:08:52.789Z,21.10
2022-08-19T01:11:22.478Z,21.00
2022-08-19T01:13:53.764Z,21.00
2022-08-19T01:16:24.961Z,21.00
2022-08-19T01:18:58.988Z,21.00
2022-08-19T01:21:56.819Z,21.00
2022-08-19T01:24:25.535Z,21.00
2022-08-19T01:26:55.549Z,21.00
2022-08-19T01:29:27.036Z,21.00
2022-08-19T01:31:55.219Z,21.00
2022-08-19T01:34:25.777Z,21.00
2022-08-19T01:36:54.236Z,21.00
2022-08-19T01:39:26.368Z,21.00
2022-08-19T01:41:57.180Z,20.90
2022-08-19T01:44:32.724Z,21.00
2022-08-19T01:47:00.954Z,20.90
2022-08-19T01:49:38.101Z,20.90
2022-08-19T01:52:08.259Z,20.90
2022-08-19T01:54:37.235Z,20.90
2022-08-19T01:57:10.096Z,20.90
2022-08-19T01:59:47.350Z,21.00
2022-08-19T02:07:24.218Z,21.00
2022-08-19T02:09:54.206Z,20.90
2022-08-19T02:12:23.387Z,20.90
2022-08-19T02:14:52.268Z,20.90
2022-08-19T02:17:22.091Z,20.90
2022-08-19T02:19:51.483Z,20.90
2022-08-19T02:22:27.890Z,20.80
2022-08-19T02:24:57.068Z,20.90
2022-08-19T02:27:27.045Z,20.80
2022-08-19T02:30:07.793Z,20.90
2022-08-19T02:33:08.805Z,20.80
2022-08-19T02:35:37.368Z,20.80
2022-08-19T02:38:24.935Z,20.90
2022-08-19T02:41:02.690Z,20.80
2022-08-19T02:43:39.805Z,20.80
2022-08-19T02:46:28.815Z,20.80
2022-08-19T02:49:00.699Z,20.80
2022-08-19T02:51:32.841Z,20.80
2022-08-19T02:54:01.302Z,20.80
2022-08-19T02:56:32.141Z,20.70
2022-08-19T02:59:00.730Z,20.70
2022-08-19T03:01:32.835Z,20.70
2022-08-19T03:04:14.529Z,20.80
2022-08-19T03:06:45.459Z,20.80
2022-08-19T03:09:15.530Z,20.80
2022-08-19T03:11:44.502Z,20.80
2022-08-19T03:14:14.198Z,20.80
2022-08-19T03:16:47.501Z,20.80
2022-08-19T03:19:26.449Z,20.80
2022-08-19T03:22:26.805Z,20.80
2022-08-19T03:24:55.349Z,20.80
2022-08-19T03:27:25.184Z,20.70
2022-08-19T03:29:58.642Z,20.70
2022-08-19T03:32:32.302Z,20.60
2022-08-19T03:35:01.455Z,20.60
2022-08-19T03:37:37.979Z,20.60
2022-08-19T03:40:09.510Z,20.60
2022-08-19T03:42:49.192Z,20.60
2022-08-19T03:45:18.549Z,20.60
2022-08-19T03:47:47.235Z,20.60
2022-08-19T03:50:18.239Z,20.60
2022-08-19T03:52:53.863Z,20.60
2022-08-19T03:55:22.673Z,20.60
2022-08-19T03:57:50.701Z,20.50
2022-08-19T04:00:27.347Z,20.50
2022-08-19T04:03:03.706Z,20.50
2022-08-19T04:05:33.679Z,20.50
2022-08-19T04:08:02.784Z,20.50
2022-08-19T04:10:30.727Z,20.50
2022-08-19T04:12:58.872Z,20.50
2022-08-19T04:16:01.196Z,20.50
2022-08-19T04:18:36.437Z,20.40
2022-08-19T04:21:18.894Z,20.40
2022-08-19T04:23:47.537Z,20.40
2022-08-19T04:26:25.879Z,20.40
2022-08-19T04:28:59.141Z,20.40
2022-08-19T04:31:32.207Z,20.30
2022-08-19T04:34:03.539Z,20.30
2022-08-19T04:36:35.138Z,20.20
2022-08-19T04:39:18.481Z,20.20
2022-08-19T04:42:07.384Z,20.20
2022-08-19T04:44:46.078Z,20.20
2022-08-19T04:47:46.987Z,20.10
2022-08-19T04:50:14.180Z,20.00
2022-08-19T04:52:44.069Z,20.00
2022-08-19T04:55:14.971Z,20.00
2022-08-19T04:57:43.921Z,19.90
2022-08-19T05:00:13.058Z,20.00
2022-08-19T05:02:41.717Z,20.00
2022-08-19T05:05:11.620Z,20.00
2022-08-19T05:07:41.393Z,20.00
2022-08-19T05:10:10.372Z,19.90
2022-08-19T05:12:40.391Z,19.90
2022-08-19T05:15:10.221Z,19.90
2022-08-19T05:17:39.378Z,19.90
2022-08-19T05:20:28.078Z,19.80
2022-08-19T05:22:57.185Z,19.80
2022-08-19T05:25:28.043Z,19.80
2022-08-19T05:27:57.818Z,19.80
2022-08-19T05:30:46.043Z,19.80
2022-08-19T05:33:18.216Z,19.80
2022-08-19T05:35:50.113Z,19.70
2022-08-19T05:38:19.821Z,19.70
2022-08-19T05:40:50.480Z,19.70
2022-08-19T05:43:19.007Z,19.70
2022-08-19T05:45:48.748Z,19.70
2022-08-19T05:48:20.683Z,19.70
2022-08-19T05:50:53.879Z,19.70
2022-08-19T05:53:28.971Z,19.70
2022-08-19T05:55:58.433Z,19.70
2022-08-19T05:58:30.461Z,19.70
2022-08-19T06:01:07.747Z,19.70
2022-08-19T06:03:44.919Z,19.80
2022-08-19T06:06:19.445Z,19.90
2022-08-19T06:08:51.608Z,19.80
2022-08-19T06:11:39.433Z,19.90
2022-08-19T06:14:16.466Z,19.90
2022-08-19T06:22:14.510Z,20.00
2022-08-19T06:25:21.754Z,20.00
2022-08-19T06:28:15.959Z,20.00
2022-08-19T06:30:58.066Z,20.10
2022-08-19T06:33:26.854Z,20.00
2022-08-19T06:35:56.527Z,20.00
2022-08-19T06:38:26.773Z,19.90
2022-08-19T06:41:07.778Z,19.90
2022-08-19T06:43:42.115Z,19.80
2022-08-19T06:46:21.071Z,19.80
2022-08-19T06:48:52.690Z,19.80
2022-08-19T06:51:25.366Z,19.80
2022-08-19T06:53:58.658Z,19.80
2022-08-19T06:56:35.180Z,19.80
2022-08-19T06:59:12.047Z,19.80
2022-08-19T07:01:55.784Z,19.80
2022-08-19T07:04:30.744Z,19.70
2022-08-19T07:07:19.907Z,19.70
2022-08-19T07:09:59.839Z,19.60
2022-08-19T07:12:36.194Z,19.60
2022-08-19T07:15:12.451Z,19.50
2022-08-19T07:17:46.293Z,19.50
2022-08-19T07:20:19.824Z,19.50
2022-08-19T07:22:56.769Z,19.50
2022-08-19T07:25:32.477Z,19.50
2022-08-19T07:28:01.877Z,19.50
2022-08-19T07:30:39.408Z,19.40
2022-08-19T07:33:07.855Z,19.50
2022-08-19T07:35:35.845Z,19.40
2022-08-19T07:38:04.947Z,19.40
2022-08-19T07:40:33.367Z,19.50
2022-08-19T07:43:01.650Z,19.50
2022-08-19T07:45:34.012Z,19.50
2022-08-19T07:48:03.826Z,19.50
2022-08-19T07:50:33.752Z,19.50
2022-08-19T07:53:06.805Z,19.60
2022-08-19T07:55:41.740Z,19.60
2022-08-19T07:58:21.558Z,19.60
2022-08-19T08:00:52.644Z,19.60
2022-08-19T08:03:47.003Z,19.60
2022-08-19T08:06:35.061Z,19.60
2022-08-19T08:09:13.344Z,19.60
2022-08-19T08:12:30.789Z,19.60
2022-08-19T08:15:00.536Z,19.50
2022-08-19T08:17:49.269Z,19.50
2022-08-19T08:20:21.935Z,19.50
2022-08-19T08:23:09.392Z,19.50
2022-08-19T08:25:39.183Z,19.50
2022-08-19T08:28:11.209Z,19.60
2022-08-19T08:30:45.102Z,19.60
2022-08-19T08:35:50.154Z,19.60
2022-08-19T08:38:19.021Z,19.60
2022-08-19T08:41:04.788Z,19.70
2022-08-19T08:43:45.934Z,19.70
2022-08-19T08:46:30.995Z,19.70
2022-08-19T08:49:27.605Z,19.80
2022-08-19T08:52:01.860Z,19.70
2022-08-19T08:54:40.772Z,19.80
2022-08-19T08:57:33.743Z,19.80
2022-08-19T09:00:37.676Z,19.80
2022-08-19T09:03:27.875Z,19.90
2022-08-19T09:06:01.678Z,20.00
2022-08-19T09:08:56.693Z,20.00
2022-08-19T09:11:42.086Z,20.00
2022-08-19T09:14:49.163Z,20.10
2022-08-19T09:17:33.256Z,20.20
2022-08-19T09:20:21.250Z,20.20
2022-08-19T09:22:51.483Z,20.10
2022-08-19T09:25:26.766Z,20.30
2022-08-19T09:28:05.808Z,20.30
2022-08-19T09:30:49.290Z,20.30
2022-08-19T09:33:18.007Z,20.40
2022-08-19T09:35:50.207Z,20.40
2022-08-19T09:38:22.787Z,20.50
2022-08-19T09:40:55.006Z,20.60
2022-08-19T09:43:33.276Z,20.70
2022-08-19T09:46:11.551Z,20.70
2022-08-19T09:48:49.456Z,20.80
2022-08-19T09:51:23.861Z,20.80
2022-08-19T09:53:58.124Z,20.70
2022-08-19T09:56:27.638Z,20.80
2022-08-19T09:58:56.892Z,20.70
2022-08-19T10:01:31.803Z,20.80
2022-08-19T10:04:08.985Z,20.90
2022-08-19T10:06:53.661Z,21.00
2022-08-19T10:09:33.659Z,21.10
2022-08-19T10:12:06.001Z,21.20
2022-08-19T10:14:37.879Z,21.30
2022-08-19T10:17:18.013Z,21.30
2022-08-19T10:19:56.013Z,21.30
2022-08-19T10:22:26.318Z,21.40
2022-08-19T10:24:58.551Z,21.60
2022-08-19T10:28:10.781Z,21.70
2022-08-19T10:30:49.162Z,22.00
2022-08-19T10:33:59.326Z,22.20
2022-08-19T10:36:38.169Z,22.40
2022-08-19T10:39:26.096Z,22.60
2022-08-19T10:42:06.135Z,22.70
2022-08-19T10:44:37.228Z,22.80
2022-08-19T10:47:17.322Z,23.10
2022-08-19T10:50:13.998Z,23.30
2022-08-19T10:52:49.701Z,23.30
2022-08-19T10:55:41.779Z,23.50
2022-08-19T10:58:29.186Z,23.60
2022-08-19T11:01:09.445Z,23.80
2022-08-19T11:03:41.988Z,24.00
2022-08-19T11:06:29.360Z,24.10
2022-08-19T11:09:00.814Z,24.30
2022-08-19T11:11:31.675Z,24.40
2022-08-19T11:14:00.911Z,24.90
2022-08-19T11:16:32.744Z,24.80
2022-08-19T11:19:02.164Z,24.90
2022-08-19T11:21:35.206Z,24.90
2022-08-19T11:24:13.951Z,24.90
2022-08-19T11:26:45.916Z,24.90
2022-08-19T11:29:15.438Z,25.00
2022-08-19T11:31:48.150Z,25.30
2022-08-19T11:34:21.205Z,25.60
2022-08-19T11:36:52.458Z,25.90
2022-08-19T11:39:24.016Z,26.10
2022-08-19T11:42:04.739Z,26.00
2022-08-19T11:44:34.584Z,25.90
2022-08-19T11:47:09.157Z,25.80
2022-08-19T11:49:38.424Z,25.80
2022-08-19T11:52:07.191Z,25.90
2022-08-19T11:54:42.554Z,25.70
2022-08-19T11:57:11.275Z,25.90
2022-08-19T11:59:52.589Z,26.20
2022-08-19T12:02:24.858Z,26.40
2022-08-19T12:04:53.791Z,26.40
2022-08-19T12:07:23.292Z,26.30
2022-08-19T12:09:51.824Z,26.30
2022-08-19T12:12:23.031Z,26.20
2022-08-19T12:14:57.706Z,26.20
2022-08-19T12:17:32.020Z,26.20
2022-08-19T12:20:00.877Z,26.40
2022-08-19T12:22:34.608Z,26.40
2022-08-19T12:25:35.870Z,26.10
2022-08-19T12:28:08.176Z,26.30
2022-08-19T12:30:39.690Z,26.50
2022-08-19T12:33:08.232Z,26.60
2022-08-19T12:35:45.179Z,26.70
2022-08-19T12:38:15.610Z,26.70
2022-08-19T12:40:48.268Z,26.80
2022-08-19T12:43:17.794Z,27.40
2022-08-19T12:45:47.633Z,28.00
2022-08-19T12:48:33.674Z,28.40
2022-08-19T12:51:14.370Z,28.50
2022-08-19T12:53:44.968Z,28.80
2022-08-19T12:56:15.991Z,28.90
2022-08-19T12:58:48.672Z,28.90
2022-08-19T13:01:22.650Z,28.60
2022-08-19T13:03:55.556Z,28.60
2022-08-19T13:06:24.386Z,28.40
2022-08-19T13:08:56.574Z,28.40
2022-08-19T13:11:35.488Z,28.40
2022-08-19T13:14:05.468Z,28.50
2022-08-19T13:16:35.027Z,28.90
2022-08-19T13:19:05.426Z,28.90
2022-08-19T13:21:35.422Z,28.80
2022-08-19T13:24:06.044Z,29.20
2022-08-19T13:26:34.453Z,29.60
2022-08-19T13:29:21.565Z,29.70
2022-08-19T13:32:09.349Z,29.80
2022-08-19T13:34:41.737Z,29.90
2022-08-19T13:37:09.708Z,29.80
2022-08-19T13:39:38.901Z,29.80
2022-08-19T13:42:09.431Z,30.00
2022-08-19T13:44:37.748Z,29.90
2022-08-19T13:47:08.025Z,30.00
2022-08-19T13:49:38.002Z,30.00
2022-08-19T13:52:10.150Z,29.90
2022-08-19T13:54:44.354Z,29.80
2022-08-19T13:57:15.235Z,29.90
2022-08-19T13:59:43.799Z,29.80
2022-08-19T14:02:12.061Z,29.80
2022-08-19T14:04:43.236Z,29.90
2022-08-19T14:07:19.638Z,30.00
2022-08-19T14:09:47.996Z,29.80
2022-08-19T14:12:28.647Z,29.40
2022-08-19T14:14:57.806Z,29.10
2022-08-19T14:17:26.818Z,28.80
2022-08-19T14:20:05.791Z,28.40
2022-08-19T14:22:41.793Z,28.40
2022-08-19T14:25:13.877Z,28.30
2022-08-19T14:27:43.299Z,28.10
2022-08-19T14:30:15.381Z,28.10
2022-08-19T14:32:55.158Z,28.20
2022-08-19T14:35:23.619Z,28.30
2022-08-19T14:37:52.081Z,28.40
2022-08-19T14:40:22.170Z,28.40
2022-08-19T14:43:00.388Z,28.40
2022-08-19T14:45:29.899Z,28.30
2022-08-19T14:47:58.291Z,28.20
2022-08-19T14:50:26.893Z,28.30
2022-08-19T14:53:09.111Z,28.50
2022-08-19T14:55:46.808Z,28.30
2022-08-19T14:58:29.696Z,28.20
2022-08-19T15:01:01.191Z,28.00
2022-08-19T15:03:30.521Z,27.90
2022-08-19T15:05:59.187Z,27.90
2022-08-19T15:08:29.380Z,27.80
2022-08-19T15:10:59.241Z,27.60
2022-08-19T15:13:29.266Z,27.60
2022-08-19T15:15:58.234Z,27.50
2022-08-19T15:18:26.444Z,27.30
2022-08-19T15:20:56.018Z,27.30
2022-08-19T15:23:24.847Z,27.30
2022-08-19T15:25:56.555Z,27.30
2022-08-19T15:28:27.160Z,27.20
2022-08-19T15:30:55.741Z,27.20
2022-08-19T15:33:25.833Z,27.20
2022-08-19T15:35:55.324Z,27.00
2022-08-19T15:38:24.096Z,27.00
2022-08-19T15:41:16.393Z,27.00
2022-08-19T15:43:44.416Z,27.10
2022-08-19T15:46:16.948Z,27.00
2022-08-19T15:48:45.782Z,27.00
2022-08-19T15:51:25.149Z,27.10
2022-08-19T15:53:53.913Z,27.00
2022-08-19T15:56:27.542Z,27.00
2022-08-19T15:59:17.280Z,27.10
2022-08-19T16:02:05.449Z,27.10
2022-08-19T16:04:57.157Z,26.90
2022-08-19T16:07:25.237Z,26.80
2022-08-19T16:09:54.624Z,26.70
2022-08-19T16:12:30.403Z,26.60
2022-08-19T16:15:06.745Z,26.60
2022-08-19T16:17:35.644Z,26.70
2022-08-19T16:20:07.291Z,26.70
2022-08-19T16:22:41.803Z,26.80
2022-08-19T16:25:09.979Z,26.80
2022-08-19T16:27:41.410Z,26.90
2022-08-19T16:30:30.142Z,27.00
2022-08-19T16:32:59.381Z,27.10
2022-08-19T16:35:27.785Z,27.10
2022-08-19T16:37:56.048Z,27.00
2022-08-19T16:40:24.898Z,26.90
2022-08-19T16:42:53.769Z,26.80
2022-08-19T16:45:22.878Z,26.70
2022-08-19T16:47:51.091Z,26.60
2022-08-19T16:50:25.413Z,26.50
2022-08-19T16:53:09.540Z,26.40
2022-08-19T16:55:44.716Z,26.30
2022-08-19T16:58:13.795Z,26.20
2022-08-19T17:00:41.885Z,26.10
2022-08-19T17:03:14.929Z,26.00
2022-08-19T17:05:46.900Z,26.00
2022-08-19T17:08:17.204Z,25.90
2022-08-19T17:11:07.867Z,25.60
2022-08-19T17:13:44.668Z,25.60
2022-08-19T17:16:24.765Z,25.50
2022-08-19T17:18:55.190Z,25.50
2022-08-19T17:21:28.500Z,25.40
2022-08-19T17:23:58.319Z,25.30
2022-08-19T17:26:27.752Z,25.20
2022-08-19T17:28:57.333Z,25.20
2022-08-19T17:31:28.057Z,25.20
2022-08-19T17:33:58.251Z,25.20
2022-08-19T17:36:31.801Z,25.10
2022-08-19T17:39:01.323Z,25.10
2022-08-19T17:41:30.549Z,25.00
2022-08-19T17:43:58.838Z,25.00
2022-08-19T17:46:27.786Z,24.90
2022-08-19T17:48:57.635Z,24.90
2022-08-19T17:51:40.385Z,24.90
2022-08-19T17:54:17.108Z,24.80
2022-08-19T17:56:46.586Z,24.80
2022-08-19T17:59:15.468Z,24.80
2022-08-19T18:01:53.671Z,24.70
2022-08-19T18:04:25.134Z,24.70
2022-08-19T18:06:55.303Z,24.60
2022-08-19T18:09:41.820Z,24.60
2022-08-19T18:12:16.386Z,24.50
2022-08-19T18:14:44.659Z,24.40
2022-08-19T18:17:46.647Z,24.30
2022-08-19T18:20:17.177Z,24.20
2022-08-19T18:22:48.600Z,24.10
2022-08-19T18:25:26.069Z,24.00
2022-08-19T18:27:59.249Z,23.90
2022-08-19T18:30:34.645Z,23.80
2022-08-19T18:33:10.005Z,23.70
2022-08-19T18:35:39.483Z,23.60
2022-08-19T18:38:30.832Z,23.60
2022-08-19T18:41:18.145Z,23.50
2022-08-19T18:44:04.275Z,23.40
2022-08-19T18:46:57.375Z,23.30
2022-08-19T18:49:28.825Z,23.20
2022-08-19T18:51:57.789Z,23.10
2022-08-19T18:54:27.290Z,23.00
2022-08-19T18:56:57.851Z,23.00
2022-08-19T18:59:28.586Z,22.90
2022-08-19T19:01:59.350Z,22.80
2022-08-19T19:04:37.912Z,22.70
2022-08-19T19:07:06.687Z,22.60
2022-08-19T19:09:38.667Z,22.60
2022-08-19T19:12:10.849Z,22.40
2022-08-19T19:14:49.719Z,22.30
2022-08-19T19:17:28.511Z,22.30
2022-08-19T19:19:56.656Z,22.30
2022-08-19T19:22:25.793Z,22.20
2022-08-19T19:24:59.290Z,22.20
2022-08-19T19:27:27.982Z,22.00
2022-08-19T19:29:57.495Z,21.80
2022-08-19T19:32:28.517Z,21.70
2022-08-19T19:34:59.549Z,21.60
2022-08-19T19:37:27.480Z,21.50
2022-08-19T19:40:02.170Z,21.30
2022-08-19T19:42:30.521Z,21.20
2022-08-19T19:44:58.753Z,21.10
2022-08-19T19:47:28.591Z,21.00
2022-08-19T19:50:13.874Z,21.00
2022-08-19T19:52:48.292Z,21.00
2022-08-19T19:55:20.322Z,20.90
2022-08-19T19:57:49.305Z,21.00
2022-08-19T20:00:18.913Z,20.80
2022-08-19T20:02:51.351Z,20.80
2022-08-19T20:05:52.528Z,20.70
2022-08-19T20:08:41.079Z,20.60
2022-08-19T20:11:09.346Z,20.50
2022-08-19T20:13:41.102Z,20.50
2022-08-19T20:16:12.578Z,20.50
2022-08-19T20:18:40.554Z,20.40
2022-08-19T20:21:08.585Z,20.40
2022-08-19T20:23:36.479Z,20.40
2022-08-19T20:26:06.662Z,20.40
2022-08-19T20:28:40.237Z,20.20
2022-08-19T20:31:17.587Z,20.30
2022-08-19T20:33:46.868Z,20.30
2022-08-19T20:36:14.811Z,20.30
2022-08-19T20:38:42.595Z,20.30
2022-08-19T20:41:11.255Z,20.20
2022-08-19T20:43:39.380Z,20.20
2022-08-19T20:46:07.461Z,20.20
2022-08-19T20:48:38.609Z,20.10
2022-08-19T20:51:06.950Z,20.00
2022-08-19T20:53:34.910Z,20.10
2022-08-19T20:56:02.979Z,20.00
2022-08-19T20:59:04.694Z,20.00
2022-08-19T21:01:32.449Z,20.00
2022-08-19T21:04:00.506Z,19.90
2022-08-19T21:06:29.346Z,20.00
2022-08-19T21:09:04.633Z,19.90
2022-08-19T21:11:32.680Z,19.90
2022-08-19T21:14:01.374Z,19.80
2022-08-19T21:16:29.336Z,19.70
2022-08-19T21:18:57.240Z,19.80
2022-08-19T21:21:25.175Z,19.80
2022-08-19T21:23:53.075Z,19.90
2022-08-19T21:26:21.258Z,19.90
2022-08-19T21:28:49.154Z,19.80
2022-08-19T21:31:18.065Z,19.80
2022-08-19T21:33:45.937Z,19.80
2022-08-19T21:36:13.902Z,19.80
2022-08-19T21:38:42.425Z,19.70
2022-08-19T21:41:16.122Z,19.70
2022-08-19T21:43:43.950Z,19.70
2022-08-19T21:46:17.138Z,19.70
2022-08-19T21:48:44.906Z,19.80
2022-08-19T21:51:12.643Z,19.70
2022-08-19T21:53:43.667Z,19.70
2022-08-19T21:56:13.240Z,19.60
2022-08-19T21:58:41.663Z,19.70
2022-08-19T22:01:10.158Z,19.70
2022-08-19T22:03:38.812Z,19.70
2022-08-19T22:06:07.526Z,19.70
2022-08-19T22:08:36.074Z,19.70
2022-08-19T22:11:13.598Z,19.70
2022-08-19T22:13:41.768Z,19.60
2022-08-19T22:16:10.394Z,19.70
2022-08-19T22:18:38.770Z,19.70
2022-08-19T22:21:12.147Z,19.70
2022-08-19T22:23:42.029Z,19.60
2022-08-19T22:26:10.714Z,19.60
2022-08-19T22:28:43.478Z,19.60
2022-08-19T22:31:11.999Z,19.60
2022-08-19T22:33:41.666Z,19.70
2022-08-19T22:36:10.160Z,19.70
2022-08-19T22:38:41.840Z,19.60
2022-08-19T22:41:10.428Z,19.50
2022-08-19T22:43:46.773Z,19.50
2022-08-19T22:46:17.200Z,19.40
2022-08-19T22:48:47.007Z,19.40
2022-08-19T22:51:34.410Z,19.40
2022-08-19T22:54:03.046Z,19.40
2022-08-19T22:56:32.505Z,19.40
2022-08-19T22:59:01.044Z,19.40
2022-08-19T23:01:30.767Z,19.40
2022-08-19T23:03:59.669Z,19.40
2022-08-19T23:06:33.180Z,19.30
2022-08-19T23:09:07.240Z,19.30
2022-08-19T23:11:42.242Z,19.30
2022-08-19T23:14:12.623Z,19.30
2022-08-19T23:16:41.613Z,19.20
2022-08-19T23:19:10.818Z,19.20
2022-08-19T23:21:43.435Z,19.10
2022-08-19T23:24:44.561Z,19.10
2022-08-19T23:27:31.993Z,19.10
2022-08-19T23:30:19.181Z,19.10
2022-08-19T23:32:47.621Z,19.10
2022-08-19T23:35:15.686Z,19.00
2022-08-19T23:37:44.124Z,19.00
2022-08-19T23:40:21.727Z,19.00
2022-08-19T23:42:51.016Z,19.00
2022-08-19T23:45:23.657Z,19.10
2022-08-19T23:47:53.187Z,19.10
2022-08-19T23:50:23.624Z,19.10
2022-08-19T23:52:57.647Z,19.10
2022-08-19T23:55:36.612Z,19.00
2022-08-19T23:58:05.621Z,19.00
